Observations for TIREE ISLAND, United Kingdom (EGPU)

EGPU 190320Z AUTO 21019G30KT 180V250 9999 FEW021/// 11/09 Q0993 RERA
EGPU 190250Z AUTO 22022KT 180V250 9999 FEW022/// SCT040/// 12/08 Q0994  
EGPU 190220Z AUTO 22024KT 190V250 9999 BKN025/// 12/08 Q0994
EGPU 190150Z AUTO 23024KT 9999 SCT023/// 11/08 Q0994
EGPU 190120Z AUTO 23023G33KT 200V260 9999 BKN021/// SCT030/// 11/08 Q0994 RERA  
EGPU 190050Z AUTO 22023KT 200V260 9999 BKN021/// SCT030/// 11/09 Q0993 RERA 
EGPU 190020Z AUTO 23028G39KT 9999 -RADZ FEW018/// 11/09 Q0993   
EGPU 182350Z AUTO 23027KT 190V260 9999 FEW019/// SCT037/// 11/08 Q0992 RERA 
EGPU 182320Z AUTO 20027G38KT 170V230 9999 -RADZ NCD 11/08 Q0991 
EGPU 182250Z AUTO 20025KT 9999 FEW038/// 11/09 Q0992 RERA   
EGPU 182220Z AUTO 19025KT 160V220 9999 -RA SCT024/// 12/10 Q0992
EGPU 182150Z AUTO 19024G34KT 160V230 9999 -RA SCT044/// 12/10 Q0992 
EGPU 182120Z AUTO 19017KT 160V220 9999 SCT030/// 12/11 Q0992 RERA   
EGPU 182050Z AUTO 20021KT 170V240 4500 RA FEW030/// BKN042/// 12/11 Q0993   
EGPU 182020Z AUTO 22026G39KT 190V250 2100 +RA FEW022/// 11/09 Q0993 
EGPU 181950Z AUTO 20019KT 9999 FEW032/// 13/10 Q0993
EGPU 181920Z AUTO 21020KT 180V240 9999 SCT032/// 13/10 Q0993
EGPU 181850Z AUTO 21021KT 180V240 9999 FEW024/// 13/10 Q0993
EGPU 181820Z AUTO 22021KT 190V260 9999 FEW020/// 13/10 Q0993
EGPU 181750Z AUTO 21018KT 180V240 9999 SCT021/// 14/12 Q0993 RERA   
EGPU 181720Z AUTO 20018KT 160V230 9999 FEW021/// 14/12 Q0993 RERA   
EGPU 181650Z 17016KT 9999 SCT021 SCT033 BKN048 14/13 Q0993  
EGPU 181620Z 17016KT 9999 FEW004 SCT028 13/13 Q0993 
EGPU 181550Z 17015KT 9999 FEW008 BKN021 13/12 Q0994 
EGPU 181520Z 18015KT 150V210 9999 9999W -DZ FEW009 BKN021 13/12 Q0994   
EGPU 181450Z 19014KT 9999 SCT012 BKN028 14/13 Q0994 
EGPU 181420Z 21012KT 9999 BKN011 SCT027 14/11 Q0994 
EGPU 181350Z 22010KT 190V260 9999 SCT010 SCT016 15/13 Q0994 
EGPU 181320Z 24013KT 9999 FEW003 BKN037 14/13 Q0994 
EGPU 181250Z 26012KT 9999 FEW003 SCT006 BKN042 13/12 Q0994  
EGPU 181220Z 27010KT 9000 SCT003 BKN011 13/13 Q0993 
EGPU 181150Z AUTO 29011KT 250V320 3300 BR BKN003/// 13/12 Q0993 
EGPU 181120Z 29010KT 2500 -DZ BKN003 SCT037 13/12 Q0993 
EGPU 181050Z 33005KT 290V360 9999 SCT003 BKN037 14/13 Q0992 
EGPU 181020Z 27004KT 9999 SCT006 BKN032 14/13 Q0992 
EGPU 180950Z AUTO 31005KT 270V340 7000 -RA FEW006/// BKN040/// 14/13 Q0992  
EGPU 180920Z 33006KT 7000 BKN006 13/13 Q0992
EGPU 180850Z 33007KT 9999 SCT003 BKN004 13/13 Q0992 
EGPU 180820Z 35009KT 9999 SCT003 BKN004 13/13 Q0992 
EGPU 180750Z 35010KT 9000 -DZ SCT003 BKN004 13/12 Q0992 
EGPU 180720Z 36011KT 8000 BKN003 BKN009 12/12 Q0993 
EGPU 180650Z 01011KT 3700 -DZ SCT002 BKN006 12/12 Q0992 
EGPU 180620Z AUTO 01010KT 9999 OVC009/// 12/12 Q0993
EGPU 180550Z AUTO 36010KT 9999 BKN009/// SCT047/// 12/11 Q0993  
EGPU 180520Z AUTO 01012KT 9999 BKN009/// BKN047/// 12/11 Q0993  
EGPU 180450Z AUTO 02010KT 9999 SCT007/// BKN046/// 12/12 Q0993 RERA 
EGPU 180420Z AUTO 01010KT 9999 BKN006/// BKN013/// 12/12 Q0993 RERA 
EGPU 180350Z AUTO 36009KT 9999 OVC006/// 12/12 Q0994 RERA   
EGPU 180320Z AUTO 35009KT 9000 -RA BKN008/// SCT042/// 12/12 Q0994  
EGPU 180250Z AUTO 35008KT 9999 RA BKN007/// BKN044/// 12/12 Q0994